Svitzer Sines — CSYI4 — position and weather

sailwx.info

Track history (hours):
 
Tides and Currents Weather Stations Pressure Air Temp Water Temp Dewpoint Dewpoint Depression Visibility Wind Speed Wind Dir Waves Ship Positions

Svitzer Sines

Last reported at 2014-Sep-18 13:33 UTC. Time now 2014-Sep-18 13:47 UTC.
Position N 38°40' W 009°09'.

Length 26 m.

Type: Tug. MMSI: 263601890.

Date/timePositionNaut miles runAvg speedWind from/ knotsBaromVisibWave heightAir tempDewpointWater temp
2014-Sep-18 13:33N 38°40' W 009°09'2 1.9
2014-Sep-18 12:33N 38°42' W 009°10'0 0.1
2014-Sep-18 11:33N 38°42' W 009°09'0 0.2
2014-Sep-18 10:33N 38°42' W 009°10'0 0.0
2014-Sep-18 09:33N 38°42' W 009°10'2 2.1
2014-Sep-18 08:33N 38°43' W 009°07'0 0.4
2014-Sep-18 07:33N 38°42' W 009°07'2 1.8
2014-Sep-18 06:33N 38°42' W 009°10'0 0.0
2014-Sep-18 05:33N 38°42' W 009°10'0 0.0
2014-Sep-18 04:33N 38°42' W 009°10'0 0.0
2014-Sep-18 03:33N 38°42' W 009°10'0 0.0
2014-Sep-18 02:33N 38°42' W 009°10'0 0.0
2014-Sep-18 01:33N 38°42' W 009°10'0 0.0
2014-Sep-18 00:33N 38°42' W 009°10'0 0.0
2014-Sep-17 23:33N 38°42' W 009°10'0 0.0
2014-Sep-17 22:33N 38°42' W 009°10'0 0.0
2014-Sep-17 21:33N 38°42' W 009°10'0 0.0
2014-Sep-17 20:33N 38°42' W 009°10'0 0.0
2014-Sep-17 19:33N 38°42' W 009°10'0 0.0
2014-Sep-17 18:33N 38°42' W 009°10'0 0.0
2014-Sep-17 17:33N 38°42' W 009°10'0 0.0
2014-Sep-17 16:33N 38°42' W 009°10'0 0.0
2014-Sep-17 15:33N 38°42' W 009°10'0 0.0
2014-Sep-17 14:33N 38°42' W 009°10'0 0.0
2014-Sep-17 13:33N 38°42' W 009°10'0 0.0
2014-Sep-17 12:33N 38°42' W 009°10'0 0.0
2014-Sep-17 11:33N 38°42' W 009°10'0 0.0
2014-Sep-17 10:33N 38°42' W 009°10'1 1.3
2014-Sep-17 09:33N 38°41' W 009°11'1 1.3
2014-Sep-17 08:33N 38°41' W 009°12'2 2.4
2014-Sep-17 07:33N 38°42' W 009°10'0 0.0
2014-Sep-17 06:33N 38°42' W 009°10'0 0.0
2014-Sep-17 05:33N 38°42' W 009°10'0 0.0
2014-Sep-17 04:33N 38°42' W 009°10'0 0.0
2014-Sep-17 03:33N 38°42' W 009°10'0 0.0
2014-Sep-17 02:33N 38°42' W 009°10'0 0.0
2014-Sep-17 01:33N 38°42' W 009°10'0 0.0
2014-Sep-17 00:33N 38°42' W 009°10'0 0.0
2014-Sep-16 23:33N 38°42' W 009°10'0 0.0
2014-Sep-16 22:33N 38°42' W 009°10'0 0.0
2014-Sep-16 21:33N 38°42' W 009°10'0 0.0
2014-Sep-16 20:33N 38°42' W 009°10'0 0.0
2014-Sep-16 19:33N 38°42' W 009°10'0 0.0
2014-Sep-16 18:33N 38°42' W 009°10'0 0.0
2014-Sep-16 17:33N 38°42' W 009°10'0 0.2
2014-Sep-16 16:33N 38°42' W 009°09'0 0.2
2014-Sep-16 15:33N 38°42' W 009°10'0 0.0
2014-Sep-16 14:33N 38°42' W 009°10'0 0.0
2014-Sep-16 13:33N 38°42' W 009°10'0 0.0
2014-Sep-16 12:33N 38°42' W 009°10'0 0.0
2014-Sep-16 11:33N 38°42' W 009°10'0 0.0
2014-Sep-16 10:33N 38°42' W 009°10'0 0.0
2014-Sep-16 09:33N 38°42' W 009°10'0 0.0
2014-Sep-16 08:33N 38°42' W 009°10'2 2.1
2014-Sep-16 07:33N 38°43' W 009°07'1 0.9
2014-Sep-16 06:33N 38°42' W 009°08'1 1.0
2014-Sep-16 05:33N 38°42' W 009°09'0 0.3
2014-Sep-16 04:33N 38°42' W 009°10'0 0.0
2014-Sep-16 03:33N 38°42' W 009°10'0 0.0
2014-Sep-16 02:33N 38°42' W 009°10'0 0.0
2014-Sep-16 01:33N 38°42' W 009°10'0 0.0
2014-Sep-16 00:33N 38°42' W 009°10'0 0.0
2014-Sep-15 23:33N 38°42' W 009°10'3 3.1
2014-Sep-15 22:33N 38°44' W 009°06'0 0.2
2014-Sep-15 21:33N 38°44' W 009°06'2 1.6
2014-Sep-15 20:33N 38°42' W 009°08'2 1.5
2014-Sep-15 19:33N 38°42' W 009°10'0 0.0
2014-Sep-15 18:33N 38°42' W 009°10'0 0.0
2014-Sep-15 17:33N 38°42' W 009°10'1 0.6
2014-Sep-15 16:33N 38°42' W 009°09'2 1.8
2014-Sep-15 15:33N 38°40' W 009°09'1 1.0
2014-Sep-15 14:33N 38°41' W 009°08'0 0.3
2014-Sep-15 13:33N 38°42' W 009°09'1 0.9
2014-Sep-15 12:33N 38°42' W 009°10'0 0.0
2014-Sep-15 11:33N 38°42' W 009°10'0 0.0
2014-Sep-15 10:33N 38°42' W 009°10'0 0.0
2014-Sep-15 09:33N 38°42' W 009°10'0 0.0
2014-Sep-15 08:33N 38°42' W 009°10'3 3.0
2014-Sep-15 07:27N 38°44' W 009°06'3 3.5
2014-Sep-15 06:33N 38°42' W 009°09'0 0.2
2014-Sep-15 05:33N 38°42' W 009°10'0 0.0
2014-Sep-15 04:33N 38°42' W 009°10'0 0.0
2014-Sep-15 03:33N 38°42' W 009°10'0 0.0
2014-Sep-15 02:33N 38°42' W 009°10'0 0.0
2014-Sep-15 01:33N 38°42' W 009°10'0 0.0
2014-Sep-15 00:33N 38°42' W 009°10'0 0.0
2014-Sep-14 23:33N 38°42' W 009°10'0 0.0
2014-Sep-14 22:33N 38°42' W 009°10'0 0.0
2014-Sep-14 21:33N 38°42' W 009°10'0 0.0
2014-Sep-14 20:33N 38°42' W 009°10'0 0.0
2014-Sep-14 19:33N 38°42' W 009°10'0 0.0
2014-Sep-14 18:33N 38°42' W 009°10'0 0.0
2014-Sep-14 17:33N 38°42' W 009°10'0 0.0
2014-Sep-14 16:33N 38°42' W 009°10'0 0.0
2014-Sep-14 15:33N 38°42' W 009°10'0 0.0
2014-Sep-14 14:33N 38°42' W 009°10'0 0.0
2014-Sep-14 13:33N 38°42' W 009°10'0 0.0
2014-Sep-14 12:33N 38°42' W 009°10'0 0.0
2014-Sep-14 11:34N 38°42' W 009°10'0 0.0
2014-Sep-14 10:33N 38°42' W 009°10'0 0.0
2014-Sep-14 09:33N 38°42' W 009°10'0 0.0
2014-Sep-14 08:33N 38°42' W 009°10'0 0.0
2014-Sep-14 07:33N 38°42' W 009°10'0 0.0
2014-Sep-14 06:33N 38°42' W 009°10'0 0.0
2014-Sep-14 05:33N 38°42' W 009°10'0 0.0
2014-Sep-14 04:33N 38°42' W 009°10'0 0.0
2014-Sep-14 03:33N 38°42' W 009°10'0 0.0
2014-Sep-14 02:33N 38°42' W 009°10'0 0.0
2014-Sep-14 01:33N 38°42' W 009°10'0 0.0
2014-Sep-13 21:34N 38°42' W 009°10'0 0.0
2014-Sep-13 20:33N 38°42' W 009°10'0 0.0
2014-Sep-13 19:33N 38°42' W 009°10'0 0.0
2014-Sep-13 18:33N 38°42' W 009°10'4 3.7
2014-Sep-13 17:32N 38°41' W 009°14'2 2.3
2014-Sep-13 16:33N 38°41' W 009°11'2 1.6
2014-Sep-13 15:33N 38°42' W 009°10'0 0.0
2014-Sep-13 14:33N 38°42' W 009°10'0 0.0
2014-Sep-13 13:33N 38°42' W 009°10'0 0.0
2014-Sep-13 12:33N 38°42' W 009°10'0 0.0
2014-Sep-13 11:33N 38°42' W 009°10'0 0.0
2014-Sep-13 10:33N 38°42' W 009°10'0 0.0
2014-Sep-13 09:33N 38°42' W 009°10'0 0.0
2014-Sep-13 08:33N 38°42' W 009°10'0 0.2
2014-Sep-13 07:33N 38°42' W 009°10'0 0.2
2014-Sep-13 06:33N 38°42' W 009°10'3 2.8
2014-Sep-13 05:33N 38°43' W 009°06'2 1.7
2014-Sep-13 04:33N 38°42' W 009°06'3 2.7
2014-Sep-13 03:33N 38°42' W 009°10'0 0.0
2014-Sep-13 02:33N 38°42' W 009°10'0 0.0
2014-Sep-13 01:33N 38°42' W 009°10'0 0.0
2014-Sep-13 00:33N 38°42' W 009°10'0 0.0
2014-Sep-12 23:33N 38°42' W 009°10'0 0.0
2014-Sep-12 22:33N 38°42' W 009°10'0 0.0
2014-Sep-12 21:33N 38°42' W 009°10'0 0.0
2014-Sep-12 20:33N 38°42' W 009°10'0 0.0
2014-Sep-12 19:33N 38°42' W 009°10'1 0.7
2014-Sep-12 18:32N 38°42' W 009°10'1 0.7
2014-Sep-12 17:33N 38°42' W 009°10'0 0.0
2014-Sep-12 16:33N 38°42' W 009°10'0 0.1
2014-Sep-12 15:33N 38°42' W 009°10'0 0.0
2014-Sep-12 14:33N 38°42' W 009°10'0 0.0
2014-Sep-12 13:33N 38°42' W 009°10'0 0.1
2014-Sep-12 12:33N 38°42' W 009°10'0 0.0
2014-Sep-12 11:33N 38°42' W 009°10'0 0.0
2014-Sep-12 10:33N 38°42' W 009°10'0 0.0
2014-Sep-12 09:33N 38°42' W 009°10'0 0.0
2014-Sep-12 08:33N 38°42' W 009°10'0 0.0
2014-Sep-12 07:33N 38°42' W 009°10'0 0.0
2014-Sep-12 06:33N 38°42' W 009°10'0 0.0
2014-Sep-12 05:33N 38°42' W 009°10'0 0.0
2014-Sep-12 04:33N 38°42' W 009°10'0 0.0
2014-Sep-12 03:33N 38°42' W 009°10'0 0.0
2014-Sep-12 02:33N 38°42' W 009°10'0 0.0
2014-Sep-12 01:33N 38°42' W 009°10'0 0.0
2014-Sep-12 00:33N 38°42' W 009°10'0 0.0
2014-Sep-11 23:33N 38°42' W 009°10'0 0.0
2014-Sep-11 22:33N 38°42' W 009°10'0 0.0
2014-Sep-11 21:33N 38°42' W 009°10'0 0.0
2014-Sep-11 20:33N 38°42' W 009°10'0 0.0
2014-Sep-11 19:33N 38°42' W 009°10'0 0.0
2014-Sep-11 18:33N 38°42' W 009°10'0 0.0
2014-Sep-11 17:33N 38°42' W 009°10'0 0.0
2014-Sep-11 16:33N 38°42' W 009°10'0 0.0
2014-Sep-11 15:33N 38°42' W 009°10'0 0.0
2014-Sep-11 14:33N 38°42' W 009°10'0 0.0
2014-Sep-11 13:33N 38°42' W 009°10'0 0.0
2014-Sep-11 12:33N 38°42' W 009°10'0 0.0
2014-Sep-11 11:33N 38°42' W 009°10'0 0.0
2014-Sep-11 10:33N 38°42' W 009°10'0 0.0
2014-Sep-11 09:33N 38°42' W 009°10'0 0.0
2014-Sep-11 08:33N 38°42' W 009°10'0 0.0
2014-Sep-11 07:33N 38°42' W 009°10'0 0.0
2014-Sep-11 06:33N 38°42' W 009°10'0 0.0
2014-Sep-11 05:33N 38°42' W 009°10'0 0.0
2014-Sep-11 04:33N 38°42' W 009°10'0 0.0
2014-Sep-11 03:33N 38°42' W 009°10'0 0.0
2014-Sep-11 02:33N 38°42' W 009°10'0 0.0
2014-Sep-11 01:33N 38°42' W 009°10'0 0.2
2014-Sep-11 00:33N 38°42' W 009°09'1 1.4
2014-Sep-10 23:32N 38°42' W 009°11'1 1.4
2014-Sep-10 22:33N 38°42' W 009°10'0 0.0
2014-Sep-10 21:33N 38°42' W 009°10'0 0.0
2014-Sep-10 20:33N 38°42' W 009°10'0 0.0
2014-Sep-10 19:33N 38°42' W 009°10'0 0.0
2014-Sep-10 18:33N 38°42' W 009°10'0 0.0
2014-Sep-10 17:33N 38°42' W 009°10'0 0.0
2014-Sep-10 16:33N 38°42' W 009°10'0 0.0
2014-Sep-10 15:33N 38°42' W 009°10'2 2.2
2014-Sep-10 14:33N 38°41' W 009°07'1 0.9
2014-Sep-10 13:33N 38°41' W 009°06'3 3.1
2014-Sep-10 12:33N 38°42' W 009°10'0 0.0
2014-Sep-10 11:33N 38°42' W 009°10'0 0.0
2014-Sep-10 10:33N 38°42' W 009°10'0 0.0
2014-Sep-10 09:33N 38°42' W 009°10'0 0.0
2014-Sep-10 08:33N 38°42' W 009°10'0 0.0
2014-Sep-10 07:33N 38°42' W 009°10'0 0.0
2014-Sep-10 06:33N 38°42' W 009°10'0 0.0
2014-Sep-10 05:33N 38°42' W 009°10'0 0.0
2014-Sep-10 04:33N 38°42' W 009°10'0 0.0
2014-Sep-10 03:33N 38°42' W 009°10'0 0.0
2014-Sep-10 02:33N 38°42' W 009°10'0 0.0
2014-Sep-10 01:33N 38°42' W 009°10'0 0.0
2014-Sep-10 00:33N 38°42' W 009°10'0 0.0
2014-Sep-09 23:33N 38°42' W 009°10'0 0.0
2014-Sep-09 22:33N 38°42' W 009°10'0 0.0
2014-Sep-09 21:33N 38°42' W 009°10'0 0.0
2014-Sep-09 20:33N 38°42' W 009°10'0 0.0
2014-Sep-09 19:33N 38°42' W 009°10'0 0.0
2014-Sep-09 18:33N 38°42' W 009°10'0 0.0
2014-Sep-09 17:33N 38°42' W 009°10'0 0.0
2014-Sep-09 16:33N 38°42' W 009°10'0 0.0
2014-Sep-09 15:33N 38°42' W 009°10'0 0.0
2014-Sep-09 14:33N 38°42' W 009°10'0 0.0
2014-Sep-09 13:33N 38°42' W 009°10'0 0.0
2014-Sep-09 12:33N 38°42' W 009°10'0 0.0
2014-Sep-09 11:33N 38°42' W 009°10'0 0.0
2014-Sep-09 10:33N 38°42' W 009°10'0 0.0
2014-Sep-09 09:33N 38°42' W 009°10'0 0.0
2014-Sep-09 08:33N 38°42' W 009°10'0 0.0
2014-Sep-09 07:33N 38°42' W 009°10'0 0.0
2014-Sep-09 06:33N 38°42' W 009°10'0 0.0
2014-Sep-09 05:33N 38°42' W 009°10'0 0.0
2014-Sep-09 04:33N 38°42' W 009°10'0 0.0
2014-Sep-09 03:33N 38°42' W 009°10'0 0.0
2014-Sep-09 02:33N 38°42' W 009°10'0 0.0
2014-Sep-09 01:33N 38°42' W 009°10'0 0.0
2014-Sep-09 00:33N 38°42' W 009°10'0 0.0
2014-Sep-08 23:33N 38°42' W 009°10'0 0.0
2014-Sep-08 22:33N 38°42' W 009°10'0 0.0
2014-Sep-08 21:33N 38°42' W 009°10'0 0.0
2014-Sep-08 20:33N 38°42' W 009°10'0 0.0
2014-Sep-08 19:33N 38°42' W 009°10'0 0.0
2014-Sep-08 18:33N 38°42' W 009°10'0 0.0
2014-Sep-08 17:33N 38°42' W 009°10'0 0.0
2014-Sep-08 16:33N 38°42' W 009°10'0 0.0
2014-Sep-08 15:33N 38°42' W 009°10'2 2.0
2014-Sep-08 14:33N 38°40' W 009°09'0 0.4
2014-Sep-08 13:33N 38°40' W 009°08'  
Track history (hours):
 
Tides and Currents Weather Stations Pressure Air Temp Water Temp Dewpoint Dewpoint Depression Visibility Wind Speed Wind Dir Waves Ship Positions

Svitzer Sines

Last reported at 2014-Sep-18 13:33 UTC. Time now 2014-Sep-18 13:47 UTC.
Position N 38°40' W 009°09'.

Length 26 m.

Type: Tug. MMSI: 263601890.

Date/timePositionNaut miles runAvg speedWind from/ knotsBaromVisibWave heightAir tempDewpointWater temp
2014-Sep-18 13:33N 38°40' W 009°09'2 1.9
2014-Sep-18 12:33N 38°42' W 009°10'0 0.1
2014-Sep-18 11:33N 38°42' W 009°09'0 0.2
2014-Sep-18 10:33N 38°42' W 009°10'0 0.0
2014-Sep-18 09:33N 38°42' W 009°10'2 2.1
2014-Sep-18 08:33N 38°43' W 009°07'0 0.4
2014-Sep-18 07:33N 38°42' W 009°07'2 1.8
2014-Sep-18 06:33N 38°42' W 009°10'0 0.0
2014-Sep-18 05:33N 38°42' W 009°10'0 0.0
2014-Sep-18 04:33N 38°42' W 009°10'0 0.0
2014-Sep-18 03:33N 38°42' W 009°10'0 0.0
2014-Sep-18 02:33N 38°42' W 009°10'0 0.0
2014-Sep-18 01:33N 38°42' W 009°10'0 0.0
2014-Sep-18 00:33N 38°42' W 009°10'0 0.0
2014-Sep-17 23:33N 38°42' W 009°10'0 0.0
2014-Sep-17 22:33N 38°42' W 009°10'0 0.0
2014-Sep-17 21:33N 38°42' W 009°10'0 0.0
2014-Sep-17 20:33N 38°42' W 009°10'0 0.0
2014-Sep-17 19:33N 38°42' W 009°10'0 0.0
2014-Sep-17 18:33N 38°42' W 009°10'0 0.0
2014-Sep-17 17:33N 38°42' W 009°10'0 0.0
2014-Sep-17 16:33N 38°42' W 009°10'0 0.0
2014-Sep-17 15:33N 38°42' W 009°10'0 0.0
2014-Sep-17 14:33N 38°42' W 009°10'0 0.0
2014-Sep-17 13:33N 38°42' W 009°10'0 0.0
2014-Sep-17 12:33N 38°42' W 009°10'0 0.0
2014-Sep-17 11:33N 38°42' W 009°10'0 0.0
2014-Sep-17 10:33N 38°42' W 009°10'1 1.3
2014-Sep-17 09:33N 38°41' W 009°11'1 1.3
2014-Sep-17 08:33N 38°41' W 009°12'2 2.4
2014-Sep-17 07:33N 38°42' W 009°10'0 0.0
2014-Sep-17 06:33N 38°42' W 009°10'0 0.0
2014-Sep-17 05:33N 38°42' W 009°10'0 0.0
2014-Sep-17 04:33N 38°42' W 009°10'0 0.0
2014-Sep-17 03:33N 38°42' W 009°10'0 0.0
2014-Sep-17 02:33N 38°42' W 009°10'0 0.0
2014-Sep-17 01:33N 38°42' W 009°10'0 0.0
2014-Sep-17 00:33N 38°42' W 009°10'0 0.0
2014-Sep-16 23:33N 38°42' W 009°10'0 0.0
2014-Sep-16 22:33N 38°42' W 009°10'0 0.0
2014-Sep-16 21:33N 38°42' W 009°10'0 0.0
2014-Sep-16 20:33N 38°42' W 009°10'0 0.0
2014-Sep-16 19:33N 38°42' W 009°10'0 0.0
2014-Sep-16 18:33N 38°42' W 009°10'0 0.0
2014-Sep-16 17:33N 38°42' W 009°10'0 0.2
2014-Sep-16 16:33N 38°42' W 009°09'0 0.2
2014-Sep-16 15:33N 38°42' W 009°10'0 0.0
2014-Sep-16 14:33N 38°42' W 009°10'0 0.0
2014-Sep-16 13:33N 38°42' W 009°10'0 0.0
2014-Sep-16 12:33N 38°42' W 009°10'0 0.0
2014-Sep-16 11:33N 38°42' W 009°10'0 0.0
2014-Sep-16 10:33N 38°42' W 009°10'0 0.0
2014-Sep-16 09:33N 38°42' W 009°10'0 0.0
2014-Sep-16 08:33N 38°42' W 009°10'2 2.1
2014-Sep-16 07:33N 38°43' W 009°07'1 0.9
2014-Sep-16 06:33N 38°42' W 009°08'1 1.0
2014-Sep-16 05:33N 38°42' W 009°09'0 0.3
2014-Sep-16 04:33N 38°42' W 009°10'0 0.0
2014-Sep-16 03:33N 38°42' W 009°10'0 0.0
2014-Sep-16 02:33N 38°42' W 009°10'0 0.0
2014-Sep-16 01:33N 38°42' W 009°10'0 0.0
2014-Sep-16 00:33N 38°42' W 009°10'0 0.0
2014-Sep-15 23:33N 38°42' W 009°10'3 3.1
2014-Sep-15 22:33N 38°44' W 009°06'0 0.2
2014-Sep-15 21:33N 38°44' W 009°06'2 1.6
2014-Sep-15 20:33N 38°42' W 009°08'2 1.5
2014-Sep-15 19:33N 38°42' W 009°10'0 0.0
2014-Sep-15 18:33N 38°42' W 009°10'0 0.0
2014-Sep-15 17:33N 38°42' W 009°10'1 0.6
2014-Sep-15 16:33N 38°42' W 009°09'2 1.8
2014-Sep-15 15:33N 38°40' W 009°09'1 1.0
2014-Sep-15 14:33N 38°41' W 009°08'0 0.3
2014-Sep-15 13:33N 38°42' W 009°09'1 0.9
2014-Sep-15 12:33N 38°42' W 009°10'0 0.0
2014-Sep-15 11:33N 38°42' W 009°10'0 0.0
2014-Sep-15 10:33N 38°42' W 009°10'0 0.0
2014-Sep-15 09:33N 38°42' W 009°10'0 0.0
2014-Sep-15 08:33N 38°42' W 009°10'3 3.0
2014-Sep-15 07:27N 38°44' W 009°06'3 3.5
2014-Sep-15 06:33N 38°42' W 009°09'0 0.2
2014-Sep-15 05:33N 38°42' W 009°10'0 0.0
2014-Sep-15 04:33N 38°42' W 009°10'0 0.0
2014-Sep-15 03:33N 38°42' W 009°10'0 0.0
2014-Sep-15 02:33N 38°42' W 009°10'0 0.0
2014-Sep-15 01:33N 38°42' W 009°10'0 0.0
2014-Sep-15 00:33N 38°42' W 009°10'0 0.0
2014-Sep-14 23:33N 38°42' W 009°10'0 0.0
2014-Sep-14 22:33N 38°42' W 009°10'0 0.0
2014-Sep-14 21:33N 38°42' W 009°10'0 0.0
2014-Sep-14 20:33N 38°42' W 009°10'0 0.0
2014-Sep-14 19:33N 38°42' W 009°10'0 0.0
2014-Sep-14 18:33N 38°42' W 009°10'0 0.0
2014-Sep-14 17:33N 38°42' W 009°10'0 0.0
2014-Sep-14 16:33N 38°42' W 009°10'0 0.0
2014-Sep-14 15:33N 38°42' W 009°10'0 0.0
2014-Sep-14 14:33N 38°42' W 009°10'0 0.0
2014-Sep-14 13:33N 38°42' W 009°10'0 0.0
2014-Sep-14 12:33N 38°42' W 009°10'0 0.0
2014-Sep-14 11:34N 38°42' W 009°10'0 0.0
2014-Sep-14 10:33N 38°42' W 009°10'0 0.0
2014-Sep-14 09:33N 38°42' W 009°10'0 0.0
2014-Sep-14 08:33N 38°42' W 009°10'0 0.0
2014-Sep-14 07:33N 38°42' W 009°10'0 0.0
2014-Sep-14 06:33N 38°42' W 009°10'0 0.0
2014-Sep-14 05:33N 38°42' W 009°10'0 0.0
2014-Sep-14 04:33N 38°42' W 009°10'0 0.0
2014-Sep-14 03:33N 38°42' W 009°10'0 0.0
2014-Sep-14 02:33N 38°42' W 009°10'0 0.0
2014-Sep-14 01:33N 38°42' W 009°10'0 0.0
2014-Sep-13 21:34N 38°42' W 009°10'0 0.0
2014-Sep-13 20:33N 38°42' W 009°10'0 0.0
2014-Sep-13 19:33N 38°42' W 009°10'0 0.0
2014-Sep-13 18:33N 38°42' W 009°10'4 3.7
2014-Sep-13 17:32N 38°41' W 009°14'2 2.3
2014-Sep-13 16:33N 38°41' W 009°11'2 1.6
2014-Sep-13 15:33N 38°42' W 009°10'0 0.0
2014-Sep-13 14:33N 38°42' W 009°10'0 0.0
2014-Sep-13 13:33N 38°42' W 009°10'0 0.0
2014-Sep-13 12:33N 38°42' W 009°10'0 0.0
2014-Sep-13 11:33N 38°42' W 009°10'0 0.0
2014-Sep-13 10:33N 38°42' W 009°10'0 0.0
2014-Sep-13 09:33N 38°42' W 009°10'0 0.0
2014-Sep-13 08:33N 38°42' W 009°10'0 0.2
2014-Sep-13 07:33N 38°42' W 009°10'0 0.2
2014-Sep-13 06:33N 38°42' W 009°10'3 2.8
2014-Sep-13 05:33N 38°43' W 009°06'2 1.7
2014-Sep-13 04:33N 38°42' W 009°06'3 2.7
2014-Sep-13 03:33N 38°42' W 009°10'0 0.0
2014-Sep-13 02:33N 38°42' W 009°10'0 0.0
2014-Sep-13 01:33N 38°42' W 009°10'0 0.0
2014-Sep-13 00:33N 38°42' W 009°10'0 0.0
2014-Sep-12 23:33N 38°42' W 009°10'0 0.0
2014-Sep-12 22:33N 38°42' W 009°10'0 0.0
2014-Sep-12 21:33N 38°42' W 009°10'0 0.0
2014-Sep-12 20:33N 38°42' W 009°10'0 0.0
2014-Sep-12 19:33N 38°42' W 009°10'1 0.7
2014-Sep-12 18:32N 38°42' W 009°10'1 0.7
2014-Sep-12 17:33N 38°42' W 009°10'0 0.0
2014-Sep-12 16:33N 38°42' W 009°10'0 0.1
2014-Sep-12 15:33N 38°42' W 009°10'0 0.0
2014-Sep-12 14:33N 38°42' W 009°10'0 0.0
2014-Sep-12 13:33N 38°42' W 009°10'0 0.1
2014-Sep-12 12:33N 38°42' W 009°10'0 0.0
2014-Sep-12 11:33N 38°42' W 009°10'0 0.0
2014-Sep-12 10:33N 38°42' W 009°10'0 0.0
2014-Sep-12 09:33N 38°42' W 009°10'0 0.0
2014-Sep-12 08:33N 38°42' W 009°10'0 0.0
2014-Sep-12 07:33N 38°42' W 009°10'0 0.0
2014-Sep-12 06:33N 38°42' W 009°10'0 0.0
2014-Sep-12 05:33N 38°42' W 009°10'0 0.0
2014-Sep-12 04:33N 38°42' W 009°10'0 0.0
2014-Sep-12 03:33N 38°42' W 009°10'0 0.0
2014-Sep-12 02:33N 38°42' W 009°10'0 0.0
2014-Sep-12 01:33N 38°42' W 009°10'0 0.0
2014-Sep-12 00:33N 38°42' W 009°10'0 0.0
2014-Sep-11 23:33N 38°42' W 009°10'0 0.0
2014-Sep-11 22:33N 38°42' W 009°10'0 0.0
2014-Sep-11 21:33N 38°42' W 009°10'0 0.0
2014-Sep-11 20:33N 38°42' W 009°10'0 0.0
2014-Sep-11 19:33N 38°42' W 009°10'0 0.0
2014-Sep-11 18:33N 38°42' W 009°10'0 0.0
2014-Sep-11 17:33N 38°42' W 009°10'0 0.0
2014-Sep-11 16:33N 38°42' W 009°10'0 0.0
2014-Sep-11 15:33N 38°42' W 009°10'0 0.0
2014-Sep-11 14:33N 38°42' W 009°10'0 0.0
2014-Sep-11 13:33N 38°42' W 009°10'0 0.0
2014-Sep-11 12:33N 38°42' W 009°10'0 0.0
2014-Sep-11 11:33N 38°42' W 009°10'0 0.0
2014-Sep-11 10:33N 38°42' W 009°10'0 0.0
2014-Sep-11 09:33N 38°42' W 009°10'0 0.0
2014-Sep-11 08:33N 38°42' W 009°10'0 0.0
2014-Sep-11 07:33N 38°42' W 009°10'0 0.0
2014-Sep-11 06:33N 38°42' W 009°10'0 0.0
2014-Sep-11 05:33N 38°42' W 009°10'0 0.0
2014-Sep-11 04:33N 38°42' W 009°10'0 0.0
2014-Sep-11 03:33N 38°42' W 009°10'0 0.0
2014-Sep-11 02:33N 38°42' W 009°10'0 0.0
2014-Sep-11 01:33N 38°42' W 009°10'0 0.2
2014-Sep-11 00:33N 38°42' W 009°09'1 1.4
2014-Sep-10 23:32N 38°42' W 009°11'1 1.4
2014-Sep-10 22:33N 38°42' W 009°10'0 0.0
2014-Sep-10 21:33N 38°42' W 009°10'0 0.0
2014-Sep-10 20:33N 38°42' W 009°10'0 0.0
2014-Sep-10 19:33N 38°42' W 009°10'0 0.0
2014-Sep-10 18:33N 38°42' W 009°10'0 0.0
2014-Sep-10 17:33N 38°42' W 009°10'0 0.0
2014-Sep-10 16:33N 38°42' W 009°10'0 0.0
2014-Sep-10 15:33N 38°42' W 009°10'2 2.2
2014-Sep-10 14:33N 38°41' W 009°07'1 0.9
2014-Sep-10 13:33N 38°41' W 009°06'3 3.1
2014-Sep-10 12:33N 38°42' W 009°10'0 0.0
2014-Sep-10 11:33N 38°42' W 009°10'0 0.0
2014-Sep-10 10:33N 38°42' W 009°10'0 0.0
2014-Sep-10 09:33N 38°42' W 009°10'0 0.0
2014-Sep-10 08:33N 38°42' W 009°10'0 0.0
2014-Sep-10 07:33N 38°42' W 009°10'0 0.0
2014-Sep-10 06:33N 38°42' W 009°10'0 0.0
2014-Sep-10 05:33N 38°42' W 009°10'0 0.0
2014-Sep-10 04:33N 38°42' W 009°10'0 0.0
2014-Sep-10 03:33N 38°42' W 009°10'0 0.0
2014-Sep-10 02:33N 38°42' W 009°10'0 0.0
2014-Sep-10 01:33N 38°42' W 009°10'0 0.0
2014-Sep-10 00:33N 38°42' W 009°10'0 0.0
2014-Sep-09 23:33N 38°42' W 009°10'0 0.0
2014-Sep-09 22:33N 38°42' W 009°10'0 0.0
2014-Sep-09 21:33N 38°42' W 009°10'0 0.0
2014-Sep-09 20:33N 38°42' W 009°10'0 0.0
2014-Sep-09 19:33N 38°42' W 009°10'0 0.0
2014-Sep-09 18:33N 38°42' W 009°10'0 0.0
2014-Sep-09 17:33N 38°42' W 009°10'0 0.0
2014-Sep-09 16:33N 38°42' W 009°10'0 0.0
2014-Sep-09 15:33N 38°42' W 009°10'0 0.0
2014-Sep-09 14:33N 38°42' W 009°10'0 0.0
2014-Sep-09 13:33N 38°42' W 009°10'0 0.0
2014-Sep-09 12:33N 38°42' W 009°10'0 0.0
2014-Sep-09 11:33N 38°42' W 009°10'0 0.0
2014-Sep-09 10:33N 38°42' W 009°10'0 0.0
2014-Sep-09 09:33N 38°42' W 009°10'0 0.0
2014-Sep-09 08:33N 38°42' W 009°10'0 0.0
2014-Sep-09 07:33N 38°42' W 009°10'0 0.0
2014-Sep-09 06:33N 38°42' W 009°10'0 0.0
2014-Sep-09 05:33N 38°42' W 009°10'0 0.0
2014-Sep-09 04:33N 38°42' W 009°10'0 0.0
2014-Sep-09 03:33N 38°42' W 009°10'0 0.0
2014-Sep-09 02:33N 38°42' W 009°10'0 0.0
2014-Sep-09 01:33N 38°42' W 009°10'0 0.0
2014-Sep-09 00:33N 38°42' W 009°10'0 0.0
2014-Sep-08 23:33N 38°42' W 009°10'0 0.0
2014-Sep-08 22:33N 38°42' W 009°10'0 0.0
2014-Sep-08 21:33N 38°42' W 009°10'0 0.0
2014-Sep-08 20:33N 38°42' W 009°10'0 0.0
2014-Sep-08 19:33N 38°42' W 009°10'0 0.0
2014-Sep-08 18:33N 38°42' W 009°10'0 0.0
2014-Sep-08 17:33N 38°42' W 009°10'0 0.0
2014-Sep-08 16:33N 38°42' W 009°10'0 0.0
2014-Sep-08 15:33N 38°42' W 009°10'2 2.0
2014-Sep-08 14:33N 38°40' W 009°09'0 0.4
2014-Sep-08 13:33N 38°40' W 009°08'  

Dump ship's entire track history